createdAt,value
2023-02-15T00:02:22.881Z,3.25
2023-02-15T00:04:54.980Z,3.00
2023-02-15T00:07:29.060Z,5.75
2023-02-15T00:09:59.956Z,2.25
2023-02-15T00:12:43.346Z,3.00
2023-02-15T00:15:19.684Z,5.00
2023-02-15T00:17:49.770Z,5.00
2023-02-15T00:20:23.936Z,2.25
2023-02-15T00:22:55.060Z,2.25
2023-02-15T00:25:27.590Z,3.00
2023-02-15T00:28:01.767Z,2.00
2023-02-15T00:30:31.098Z,2.50
2023-02-15T00:33:05.958Z,2.25
2023-02-15T00:35:38.495Z,2.25
2023-02-15T00:38:09.411Z,2.00
2023-02-15T00:40:56.341Z,2.50
2023-02-15T00:43:33.517Z,2.00
2023-02-15T00:46:10.218Z,1.00
2023-02-15T00:48:42.009Z,1.25
2023-02-15T00:51:16.926Z,1.00
2023-02-15T00:53:55.404Z,1.00
2023-02-15T00:56:29.807Z,1.00
2023-02-15T00:59:00.137Z,1.00
2023-02-15T01:01:29.679Z,1.00
2023-02-15T01:04:01.322Z,2.00
2023-02-15T01:06:31.043Z,1.25
2023-02-15T01:09:02.260Z,1.00
2023-02-15T01:11:33.986Z,1.00
2023-02-15T01:14:02.142Z,1.00
2023-02-15T01:16:31.053Z,3.00
2023-02-15T01:19:04.006Z,2.25
2023-02-15T01:21:38.948Z,1.50
2023-02-15T01:24:06.900Z,1.00
2023-02-15T01:26:36.329Z,0.00
2023-02-15T01:29:04.284Z,1.25
2023-02-15T01:31:35.044Z,1.00
2023-02-15T01:34:04.617Z,1.00
2023-02-15T01:36:35.668Z,1.75
2023-02-15T01:39:07.744Z,0.75
2023-02-15T01:41:35.963Z,1.00
2023-02-15T01:44:05.126Z,1.00
2023-02-15T01:46:41.892Z,0.75
2023-02-15T01:49:18.137Z,2.00
2023-02-15T01:51:50.651Z,1.00
2023-02-15T01:54:28.573Z,1.00
2023-02-15T01:57:03.885Z,2.00
2023-02-15T01:59:36.609Z,1.50
2023-02-15T02:02:13.553Z,1.00
2023-02-15T02:05:07.996Z,1.75
2023-02-15T02:07:43.631Z,1.00
2023-02-15T02:10:20.475Z,1.00
2023-02-15T02:13:07.794Z,2.75
2023-02-15T02:16:22.394Z,2.00
2023-02-15T02:19:14.154Z,1.00
2023-02-15T02:22:20.602Z,1.00
2023-02-15T02:25:16.920Z,1.00
2023-02-15T02:28:14.178Z,1.50
2023-02-15T02:31:19.618Z,1.00
2023-02-15T02:34:09.896Z,1.00
2023-02-15T02:36:37.470Z,1.50
2023-02-15T02:44:00.819Z,2.00
2023-02-15T02:47:11.200Z,1.00
2023-02-15T02:49:46.041Z,1.00
2023-02-15T02:52:47.297Z,2.00
2023-02-15T02:55:42.126Z,1.25
2023-02-15T02:58:35.728Z,1.00
2023-02-15T03:01:29.422Z,1.00
2023-02-15T03:04:18.083Z,2.00
2023-02-15T03:07:11.312Z,1.00
2023-02-15T03:09:51.204Z,1.75
2023-02-15T03:12:34.663Z,2.00
2023-02-15T03:15:20.684Z,2.00
2023-02-15T03:17:59.379Z,1.00
2023-02-15T03:20:41.526Z,2.50
2023-02-15T03:23:18.876Z,3.00
2023-02-15T03:25:58.948Z,1.00
2023-02-15T03:28:45.282Z,1.00
2023-02-15T03:31:18.341Z,1.00
2023-02-15T03:41:10.786Z,1.00
2023-02-15T03:43:59.516Z,2.25
2023-02-15T03:47:02.099Z,2.00
2023-02-15T03:50:27.854Z,1.75
2023-02-15T03:52:58.850Z,1.25
2023-02-15T03:55:27.302Z,2.00
2023-02-15T03:58:13.832Z,1.25
2023-02-15T04:01:19.200Z,2.50
2023-02-15T04:03:59.034Z,2.25
2023-02-15T04:06:27.291Z,1.75
2023-02-15T04:09:13.792Z,1.75
2023-02-15T04:11:48.223Z,1.25
2023-02-15T04:14:34.683Z,1.50
2023-02-15T04:17:09.458Z,2.00
2023-02-15T04:19:59.344Z,3.00
2023-02-15T04:22:45.656Z,1.00
2023-02-15T04:25:16.387Z,1.00
2023-02-15T04:27:47.199Z,1.00
2023-02-15T04:30:16.860Z,1.00
2023-02-15T04:32:47.545Z,1.25
2023-02-15T04:35:16.209Z,2.00
2023-02-15T04:37:52.294Z,1.75
2023-02-15T04:40:22.692Z,1.25
2023-02-15T04:42:51.559Z,1.00
2023-02-15T04:45:19.419Z,2.00
2023-02-15T04:47:47.391Z,2.50
2023-02-15T04:50:15.281Z,1.00
2023-02-15T04:52:44.204Z,1.50
2023-02-15T04:55:11.922Z,1.00
2023-02-15T04:57:41.801Z,2.00
2023-02-15T05:00:24.859Z,1.50
2023-02-15T05:02:53.302Z,1.00
2023-02-15T05:05:25.131Z,1.25
2023-02-15T05:07:53.477Z,2.25
2023-02-15T05:10:23.185Z,2.25
2023-02-15T05:12:51.075Z,2.75
2023-02-15T05:15:21.644Z,2.00
2023-02-15T05:17:51.700Z,2.75
2023-02-15T05:20:20.203Z,2.25
2023-02-15T05:22:50.530Z,1.50
2023-02-15T05:25:39.486Z,1.00
2023-02-15T05:28:20.602Z,1.50
2023-02-15T05:31:03.160Z,2.00
2023-02-15T05:33:32.569Z,1.00
2023-02-15T05:36:02.634Z,5.75
2023-02-15T05:38:32.002Z,12.00
2023-02-15T05:41:01.232Z,6.00
2023-02-15T05:43:30.732Z,6.50
2023-02-15T05:46:01.559Z,7.25
2023-02-15T05:48:30.103Z,5.00
2023-02-15T05:51:03.532Z,9.75
2023-02-15T05:53:35.560Z,8.50
2023-02-15T05:56:05.027Z,7.75
2023-02-15T05:58:38.560Z,10.50
2023-02-15T06:01:14.947Z,8.75
2023-02-15T06:03:47.795Z,9.00
2023-02-15T06:06:17.172Z,8.50
2023-02-15T06:08:45.784Z,10.00
2023-02-15T06:11:14.820Z,9.00
2023-02-15T06:13:54.763Z,10.75
2023-02-15T06:16:22.870Z,11.00
2023-02-15T06:18:53.600Z,9.50
2023-02-15T06:21:24.227Z,10.25
2023-02-15T06:23:52.151Z,8.50
2023-02-15T06:26:19.839Z,10.00
2023-02-15T06:28:47.562Z,8.25
2023-02-15T06:31:15.313Z,7.50
2023-02-15T06:33:46.833Z,5.25
2023-02-15T06:36:14.768Z,5.00
2023-02-15T06:38:43.499Z,4.50
2023-02-15T06:41:11.578Z,5.75
2023-02-15T06:43:41.133Z,7.50
2023-02-15T06:46:09.030Z,6.00
2023-02-15T06:48:40.227Z,5.00
2023-02-15T06:51:08.013Z,3.50
2023-02-15T06:53:37.651Z,5.50
2023-02-15T06:56:10.278Z,16.50
2023-02-15T06:58:39.882Z,10.00
2023-02-15T07:01:11.406Z,3.00
2023-02-15T07:03:41.016Z,2.00
2023-02-15T07:06:10.079Z,1.00
2023-02-15T07:08:39.621Z,2.00
2023-02-15T07:11:27.312Z,3.00
2023-02-15T07:13:55.488Z,2.00
2023-02-15T07:16:23.829Z,1.00
2023-02-15T07:18:52.537Z,2.50
2023-02-15T07:21:23.167Z,2.00
2023-02-15T07:23:51.090Z,1.50
2023-02-15T07:26:18.877Z,1.50
2023-02-15T07:28:47.693Z,2.25
2023-02-15T07:31:16.962Z,2.00
2023-02-15T07:39:39.216Z,2.00
2023-02-15T07:42:07.227Z,3.00
2023-02-15T07:44:39.744Z,2.00
2023-02-15T07:47:09.269Z,6.00
2023-02-15T07:49:38.208Z,1.75
2023-02-15T07:52:07.843Z,1.00
2023-02-15T07:54:37.391Z,2.00
2023-02-15T07:59:50.011Z,3.00
2023-02-15T08:02:19.473Z,2.00
2023-02-15T08:04:48.741Z,2.00
2023-02-15T08:07:20.667Z,3.00
2023-02-15T08:09:52.304Z,2.75
2023-02-15T08:12:22.825Z,3.00
2023-02-15T08:14:51.387Z,2.50
2023-02-15T08:17:23.817Z,2.00
2023-02-15T08:19:52.100Z,2.75
2023-02-15T08:22:21.858Z,1.50
2023-02-15T08:24:49.911Z,2.25
2023-02-15T08:27:28.169Z,2.00
2023-02-15T08:29:56.290Z,1.75
2023-02-15T08:32:31.133Z,2.00
2023-02-15T08:35:21.590Z,3.00
2023-02-15T08:37:51.336Z,1.75
2023-02-15T08:43:10.966Z,3.00
2023-02-15T08:45:45.428Z,3.00
2023-02-15T08:48:13.691Z,3.25
2023-02-15T08:53:54.559Z,2.00
2023-02-15T08:56:46.629Z,0.00
2023-02-15T08:59:23.601Z,2.25
2023-02-15T09:01:55.998Z,2.50
2023-02-15T09:04:26.120Z,3.00
2023-02-15T09:06:54.315Z,3.00
2023-02-15T09:09:27.214Z,2.50
2023-02-15T09:12:00.142Z,2.25
2023-02-15T09:14:33.278Z,3.25
2023-02-15T09:17:11.336Z,4.75
2023-02-15T09:19:54.253Z,5.50
2023-02-15T09:22:24.054Z,6.00
2023-02-15T09:24:53.323Z,5.50
2023-02-15T09:27:46.850Z,2.25
2023-02-15T09:30:17.519Z,3.00
2023-02-15T09:35:49.308Z,2.50
2023-02-15T09:38:19.132Z,2.25
2023-02-15T09:41:19.009Z,4.25
2023-02-15T09:44:38.418Z,3.25
2023-02-15T09:47:45.938Z,5.00
2023-02-15T09:50:31.597Z,5.00
2023-02-15T09:53:41.247Z,4.25
2023-02-15T09:56:49.970Z,4.25
2023-02-15T09:59:47.292Z,5.00
2023-02-15T10:03:02.416Z,5.50
2023-02-15T10:09:12.689Z,2.50
2023-02-15T10:11:52.639Z,2.25
2023-02-15T10:14:42.886Z,5.00
2023-02-15T10:20:10.623Z,6.00
2023-02-15T10:26:03.171Z,5.25
2023-02-15T10:29:11.168Z,6.75
2023-02-15T10:32:18.944Z,3.75
2023-02-15T10:35:40.443Z,4.00
2023-02-15T10:38:41.148Z,5.25
2023-02-15T10:41:21.662Z,4.00
2023-02-15T10:44:08.716Z,3.00
2023-02-15T10:46:53.703Z,2.00
2023-02-15T10:50:06.852Z,2.75
2023-02-15T10:53:35.429Z,4.00
2023-02-15T10:56:26.417Z,4.25
2023-02-15T10:59:28.798Z,3.00
2023-02-15T11:02:14.750Z,4.25
2023-02-15T11:04:57.074Z,3.00
2023-02-15T11:07:44.593Z,4.00
2023-02-15T11:10:49.395Z,5.50
2023-02-15T11:13:37.815Z,3.25
2023-02-15T11:19:42.472Z,4.25
2023-02-15T11:22:18.131Z,4.00
2023-02-15T11:25:10.893Z,4.25
2023-02-15T11:30:53.360Z,2.25
2023-02-15T11:39:24.824Z,6.25
2023-02-15T11:45:36.840Z,3.50
2023-02-15T11:51:21.612Z,3.75
2023-02-15T11:54:01.114Z,3.50
2023-02-15T11:56:43.116Z,4.25
2023-02-15T11:59:42.845Z,4.75
2023-02-15T12:05:26.457Z,1.50
2023-02-15T12:08:23.176Z,2.00
2023-02-15T12:11:14.827Z,2.25
2023-02-15T12:14:06.030Z,6.00
2023-02-15T12:16:52.929Z,6.00
2023-02-15T12:19:37.543Z,6.75
2023-02-15T12:22:14.800Z,7.00
2023-02-15T12:25:05.396Z,6.00
2023-02-15T12:33:47.014Z,2.00
2023-02-15T12:36:31.058Z,3.00
2023-02-15T12:42:17.232Z,3.75
2023-02-15T12:45:32.285Z,6.25
2023-02-15T12:48:14.689Z,4.25
2023-02-15T12:50:46.411Z,7.00
2023-02-15T12:53:45.014Z,4.00
2023-02-15T12:56:29.699Z,3.00
2023-02-15T13:04:55.569Z,0.75
2023-02-15T13:07:40.202Z,2.75
2023-02-15T13:13:41.685Z,1.00
2023-02-15T13:16:17.243Z,2.00
2023-02-15T13:18:51.324Z,2.50
2023-02-15T13:21:41.760Z,2.00
2023-02-15T13:28:05.669Z,1.00
2023-02-15T13:30:40.613Z,1.25
2023-02-15T13:33:33.804Z,0.75
2023-02-15T13:36:21.677Z,4.50
2023-02-15T13:39:25.045Z,1.00
2023-02-15T13:46:11.040Z,4.25
2023-02-15T13:49:20.607Z,2.75
2023-02-15T13:52:26.232Z,3.25
2023-02-15T13:55:03.147Z,6.00
2023-02-15T13:58:11.679Z,3.00
2023-02-15T14:35:19.590Z,5.25
2023-02-15T14:37:53.395Z,5.00
2023-02-15T14:44:26.176Z,5.25
2023-02-15T14:47:40.697Z,2.50
2023-02-15T15:03:29.028Z,6.00
2023-02-15T15:06:09.862Z,2.50
2023-02-15T15:12:31.102Z,3.00
2023-02-15T15:15:30.224Z,5.00
2023-02-15T15:24:09.416Z,5.75
2023-02-15T19:07:58.963Z,4.25
2023-02-15T19:10:39.569Z,5.25
2023-02-15T19:16:43.110Z,5.00
2023-02-15T19:22:34.306Z,5.50
2023-02-15T19:25:09.590Z,5.00
2023-02-15T19:42:30.479Z,4.00
2023-02-15T19:45:29.615Z,4.00
2023-02-15T20:09:04.448Z,4.00
2023-02-15T20:14:48.202Z,4.25
2023-02-15T20:20:36.676Z,4.00
2023-02-15T21:14:37.276Z,4.50
2023-02-15T21:17:14.964Z,6.50
2023-02-15T21:19:48.162Z,7.50
2023-02-15T21:22:19.746Z,5.25
2023-02-15T21:24:52.745Z,4.00
2023-02-15T21:27:22.563Z,8.50
2023-02-15T21:29:51.374Z,4.50
2023-02-15T21:32:20.142Z,7.50
2023-02-15T21:34:50.812Z,6.67
2023-02-15T21:37:34.532Z,7.00
2023-02-15T21:43:40.617Z,4.67
2023-02-15T21:46:37.551Z,5.33
2023-02-15T21:49:11.092Z,6.00
2023-02-15T21:58:07.566Z,6.67
2023-02-15T22:00:37.394Z,6.67
2023-02-15T22:03:27.716Z,5.33
2023-02-15T22:06:14.188Z,5.00
2023-02-15T22:11:57.014Z,5.67
2023-02-15T22:14:39.803Z,4.00
2023-02-15T22:17:27.019Z,2.00
2023-02-15T22:20:01.647Z,4.00
2023-02-15T22:25:35.567Z,4.75
2023-02-15T22:28:05.209Z,4.00
2023-02-15T22:30:42.672Z,4.75
2023-02-15T22:33:25.435Z,2.00
2023-02-15T22:36:03.322Z,4.00
2023-02-15T22:38:34.417Z,3.33
2023-02-15T22:41:05.341Z,3.00
2023-02-15T22:43:45.866Z,4.50
2023-02-15T22:46:24.295Z,5.00
2023-02-15T22:49:04.009Z,4.00
2023-02-15T22:51:33.704Z,5.33
2023-02-15T22:54:09.906Z,5.00
2023-02-15T22:56:52.656Z,5.00
2023-02-15T22:59:30.234Z,5.00
2023-02-15T23:02:05.220Z,4.00
2023-02-15T23:04:35.253Z,1.50
2023-02-15T23:07:12.445Z,1.50
2023-02-15T23:09:44.470Z,4.25
2023-02-15T23:12:54.948Z,4.75
2023-02-15T23:15:26.804Z,2.00
2023-02-15T23:18:11.090Z,5.00
2023-02-15T23:20:42.336Z,6.00
2023-02-15T23:23:15.006Z,4.25
2023-02-15T23:25:47.153Z,3.00
2023-02-15T23:28:32.203Z,4.75
2023-02-15T23:31:06.950Z,5.00
2023-02-15T23:33:37.699Z,5.75
2023-02-15T23:36:14.348Z,5.50
2023-02-15T23:38:43.567Z,1.00
2023-02-15T23:41:22.549Z,5.50
2023-02-15T23:44:03.448Z,4.75
2023-02-15T23:46:47.221Z,6.00
2023-02-15T23:49:29.216Z,4.00
2023-02-15T23:51:58.859Z,5.00
2023-02-15T23:54:31.109Z,5.50
2023-02-15T23:57:02.691Z,2.00
2023-02-15T23:59:32.800Z,7.00
